createdAt,value
2023-01-18T00:00:14.413Z,2.47
2023-01-18T00:02:41.925Z,3.50
2023-01-18T00:05:09.533Z,2.70
2023-01-18T00:07:37.046Z,2.45
2023-01-18T00:10:04.613Z,2.55
2023-01-18T00:12:33.851Z,2.20
2023-01-18T00:15:01.305Z,2.15
2023-01-18T00:17:28.720Z,2.35
2023-01-18T00:19:56.166Z,2.45
2023-01-18T00:22:23.552Z,2.92
2023-01-18T00:24:51.053Z,2.60
2023-01-18T00:27:18.554Z,3.35
2023-01-18T00:29:46.027Z,2.22
2023-01-18T00:32:14.545Z,2.08
2023-01-18T00:34:41.930Z,2.08
2023-01-18T00:37:09.309Z,1.83
2023-01-18T00:39:36.827Z,2.08
2023-01-18T00:42:22.907Z,2.30
2023-01-18T00:44:50.388Z,2.20
2023-01-18T00:47:17.948Z,2.50
2023-01-18T00:49:46.275Z,2.40
2023-01-18T00:52:13.716Z,1.92
2023-01-18T00:54:41.127Z,2.00
2023-01-18T00:57:08.505Z,2.22
2023-01-18T00:59:35.963Z,2.25
2023-01-18T01:02:03.900Z,2.40
2023-01-18T01:04:50.321Z,2.35
2023-01-18T01:07:17.920Z,2.15
2023-01-18T01:09:46.260Z,2.22
2023-01-18T01:12:32.491Z,2.20
2023-01-18T01:15:18.927Z,2.22
2023-01-18T01:18:05.144Z,2.58
2023-01-18T01:20:51.547Z,2.40
2023-01-18T01:23:39.062Z,2.17
2023-01-18T01:26:07.957Z,2.42
2023-01-18T01:28:35.826Z,2.15
2023-01-18T01:31:06.102Z,2.15
2023-01-18T01:33:34.299Z,2.97
2023-01-18T01:36:02.798Z,2.10
2023-01-18T01:38:31.323Z,2.15
2023-01-18T01:41:03.169Z,2.55
2023-01-18T01:43:49.944Z,1.70
2023-01-18T01:46:32.481Z,2.55
2023-01-18T01:49:02.741Z,2.53
2023-01-18T01:51:30.243Z,2.20
2023-01-18T01:54:00.667Z,2.40
2023-01-18T01:56:29.425Z,2.70
2023-01-18T01:58:59.662Z,2.50
2023-01-18T02:01:28.838Z,3.00
2023-01-18T02:03:57.494Z,3.17
2023-01-18T02:06:31.494Z,2.80
2023-01-18T02:09:00.662Z,3.40
2023-01-18T02:11:29.363Z,2.80
2023-01-18T02:13:57.807Z,2.47
2023-01-18T02:16:32.195Z,2.75
2023-01-18T02:19:16.713Z,2.63
2023-01-18T02:21:56.636Z,3.33
2023-01-18T02:24:39.265Z,2.60
2023-01-18T02:27:22.225Z,2.83
2023-01-18T02:29:49.681Z,2.65
2023-01-18T02:32:35.816Z,2.65
2023-01-18T02:35:15.611Z,2.63
2023-01-18T02:37:53.107Z,2.65
2023-01-18T02:40:34.947Z,2.63
2023-01-18T02:43:23.052Z,2.70
2023-01-18T02:46:09.513Z,3.03
2023-01-18T02:48:38.691Z,2.85
2023-01-18T02:51:06.586Z,3.33
2023-01-18T02:53:37.052Z,2.90
2023-01-18T02:56:06.404Z,3.30
2023-01-18T02:58:51.941Z,3.88
2023-01-18T03:03:48.754Z,3.08
2023-01-18T03:06:16.339Z,2.92
2023-01-18T03:08:50.388Z,3.20
2023-01-18T03:11:29.687Z,3.40
2023-01-18T03:13:57.097Z,3.30
2023-01-18T03:16:39.655Z,3.30
2023-01-18T03:19:31.704Z,2.78
2023-01-18T03:21:59.939Z,3.00
2023-01-18T03:24:28.575Z,2.80
2023-01-18T03:26:57.903Z,2.70
2023-01-18T03:29:44.267Z,2.65
2023-01-18T03:32:37.080Z,3.10
2023-01-18T03:35:08.216Z,2.40
2023-01-18T03:37:40.898Z,2.92
2023-01-18T03:40:08.567Z,2.58
2023-01-18T03:42:56.529Z,3.05
2023-01-18T03:45:27.797Z,2.80
2023-01-18T03:47:55.242Z,3.45
2023-01-18T03:50:25.529Z,12.65
2023-01-18T03:52:57.051Z,12.38
2023-01-18T03:55:27.345Z,11.05
2023-01-18T03:58:06.717Z,8.50
2023-01-18T04:00:34.214Z,6.57
2023-01-18T04:03:02.127Z,4.97
2023-01-18T04:05:29.870Z,3.80
2023-01-18T04:07:57.283Z,4.05
2023-01-18T04:10:25.397Z,4.30
2023-01-18T04:12:52.813Z,3.92
2023-01-18T04:15:20.491Z,3.47
2023-01-18T04:17:53.225Z,3.30
2023-01-18T04:20:20.876Z,3.70
2023-01-18T04:22:55.837Z,4.15
2023-01-18T04:25:23.726Z,3.47
2023-01-18T04:27:51.116Z,3.45
2023-01-18T04:30:18.761Z,4.30
2023-01-18T04:32:46.443Z,3.42
2023-01-18T04:35:14.534Z,3.45
2023-01-18T04:37:42.065Z,3.50
2023-01-18T04:40:10.220Z,3.60
2023-01-18T04:42:37.611Z,3.13
2023-01-18T04:45:05.349Z,2.83
2023-01-18T04:47:32.815Z,3.47
2023-01-18T04:50:01.063Z,3.80
2023-01-18T04:52:32.174Z,3.28
2023-01-18T04:54:59.749Z,2.85
2023-01-18T04:57:27.280Z,3.60
2023-01-18T04:59:54.805Z,3.42
2023-01-18T05:02:22.317Z,3.00
2023-01-18T05:04:49.909Z,4.00
2023-01-18T05:07:17.464Z,3.50
2023-01-18T05:09:44.983Z,3.40
2023-01-18T05:12:12.606Z,3.33
2023-01-18T05:14:40.070Z,7.22
2023-01-18T05:17:07.521Z,8.15
2023-01-18T05:19:35.051Z,3.70
2023-01-18T05:22:02.548Z,3.28
2023-01-18T05:24:30.299Z,3.30
2023-01-18T05:26:58.124Z,3.20
2023-01-18T05:29:28.132Z,3.67
2023-01-18T05:31:55.671Z,3.30
2023-01-18T05:34:23.070Z,2.83
2023-01-18T05:36:51.163Z,3.28
2023-01-18T05:39:18.550Z,3.35
2023-01-18T05:41:46.080Z,4.10
2023-01-18T05:44:13.702Z,3.97
2023-01-18T05:46:41.146Z,4.10
2023-01-18T05:49:08.675Z,4.60
2023-01-18T05:51:36.277Z,5.30
2023-01-18T05:54:03.790Z,8.43
2023-01-18T05:56:31.375Z,6.65
2023-01-18T05:58:59.770Z,5.90
2023-01-18T06:01:27.315Z,4.40
2023-01-18T06:03:54.754Z,3.63
2023-01-18T06:06:22.229Z,3.53
2023-01-18T06:08:49.779Z,3.13
2023-01-18T06:11:17.261Z,3.28
2023-01-18T06:13:44.719Z,3.80
2023-01-18T06:16:12.159Z,3.40
2023-01-18T06:18:39.932Z,3.60
2023-01-18T06:21:08.173Z,3.92
2023-01-18T06:23:35.672Z,4.18
2023-01-18T06:26:03.036Z,3.30
2023-01-18T06:28:31.042Z,4.05
2023-01-18T06:30:58.608Z,4.20
2023-01-18T06:33:26.269Z,4.05
2023-01-18T06:35:53.861Z,3.90
2023-01-18T06:38:21.327Z,3.63
2023-01-18T06:40:49.016Z,3.80
2023-01-18T06:43:16.941Z,3.97
2023-01-18T06:45:44.779Z,3.47
2023-01-18T06:48:12.335Z,3.63
2023-01-18T06:50:39.921Z,3.05
2023-01-18T06:53:07.593Z,2.65
2023-01-18T06:55:35.068Z,3.20
2023-01-18T06:58:02.763Z,4.05
2023-01-18T07:00:30.177Z,4.40
2023-01-18T07:02:58.660Z,4.10
2023-01-18T07:05:26.513Z,4.45
2023-01-18T07:07:54.078Z,3.42
2023-01-18T07:10:21.486Z,3.03
2023-01-18T07:12:50.987Z,4.03
2023-01-18T07:15:22.918Z,3.58
2023-01-18T07:17:51.090Z,3.55
2023-01-18T07:20:19.855Z,4.50
2023-01-18T07:22:51.450Z,3.72
2023-01-18T07:25:20.749Z,3.97
2023-01-18T07:27:51.875Z,3.75
2023-01-18T07:30:19.584Z,3.60
2023-01-18T07:32:51.265Z,4.03
2023-01-18T07:35:22.159Z,3.83
2023-01-18T07:37:50.637Z,3.35
2023-01-18T07:40:18.273Z,3.83
2023-01-18T07:42:45.807Z,3.60
2023-01-18T07:45:13.917Z,4.03
2023-01-18T07:47:46.325Z,4.03
2023-01-18T07:50:14.463Z,3.17
2023-01-18T07:52:41.956Z,3.13
2023-01-18T07:55:09.856Z,2.92
2023-01-18T07:57:37.283Z,2.97
2023-01-18T08:00:07.251Z,3.28
2023-01-18T08:05:10.683Z,2.75
2023-01-18T08:07:38.444Z,3.38
2023-01-18T08:10:06.186Z,3.50
2023-01-18T08:12:33.998Z,3.42
2023-01-18T08:15:02.036Z,3.15
2023-01-18T08:17:30.971Z,2.92
2023-01-18T08:19:58.557Z,2.78
2023-01-18T08:22:25.977Z,3.22
2023-01-18T08:24:53.694Z,2.90
2023-01-18T08:27:22.694Z,3.40
2023-01-18T08:29:50.248Z,3.15
2023-01-18T08:32:17.719Z,3.50
2023-01-18T08:34:45.266Z,3.00
2023-01-18T08:37:12.895Z,2.80
2023-01-18T08:39:40.414Z,3.47
2023-01-18T08:42:07.846Z,3.15
2023-01-18T08:44:35.346Z,3.00
2023-01-18T08:47:03.419Z,2.92
2023-01-18T08:49:32.810Z,3.20
2023-01-18T08:52:00.290Z,3.22
2023-01-18T08:54:28.165Z,2.97
2023-01-18T08:56:55.601Z,3.53
2023-01-18T08:59:23.747Z,3.30
2023-01-18T09:01:51.251Z,3.40
2023-01-18T09:04:18.951Z,3.38
2023-01-18T09:06:47.343Z,2.72
2023-01-18T09:09:14.922Z,3.28
2023-01-18T09:11:42.377Z,3.25
2023-01-18T09:14:09.852Z,3.05
2023-01-18T09:16:37.278Z,3.35
2023-01-18T09:19:06.560Z,2.72
2023-01-18T09:21:34.422Z,2.55
2023-01-18T09:24:01.925Z,3.40
2023-01-18T09:26:30.617Z,2.97
2023-01-18T09:28:58.297Z,3.35
2023-01-18T09:31:26.832Z,2.67
2023-01-18T09:33:57.404Z,3.53
2023-01-18T09:36:28.568Z,3.33
2023-01-18T09:38:56.607Z,3.03
2023-01-18T09:41:33.282Z,3.10
2023-01-18T09:44:02.367Z,2.72
2023-01-18T09:46:29.845Z,3.15
2023-01-18T09:49:00.087Z,2.55
2023-01-18T09:51:39.952Z,2.90
2023-01-18T09:54:10.263Z,2.50
2023-01-18T09:56:53.240Z,2.42
2023-01-18T09:59:20.922Z,2.92
2023-01-18T10:01:48.992Z,2.28
2023-01-18T10:04:26.278Z,3.67
2023-01-18T10:06:56.926Z,3.40
2023-01-18T10:09:29.575Z,3.35
2023-01-18T10:11:59.745Z,4.22
2023-01-18T10:14:30.335Z,5.03
2023-01-18T10:17:01.296Z,6.55
2023-01-18T10:19:30.660Z,3.40
2023-01-18T10:22:07.355Z,2.72
2023-01-18T10:24:40.599Z,2.67
2023-01-18T10:40:12.734Z,3.10
2023-01-18T10:42:51.087Z,4.05
2023-01-18T10:45:21.569Z,2.95
2023-01-18T10:47:52.980Z,2.80
2023-01-18T10:50:20.452Z,3.22
2023-01-18T10:52:47.848Z,3.03
2023-01-18T10:55:18.938Z,3.20
2023-01-18T10:57:50.123Z,2.38
2023-01-18T11:00:23.428Z,3.15
2023-01-18T11:02:52.570Z,2.42
2023-01-18T11:05:30.559Z,2.88
2023-01-18T11:08:16.511Z,2.55
2023-01-18T11:10:44.038Z,3.05
2023-01-18T11:13:25.223Z,2.70
2023-01-18T11:16:12.886Z,2.40
2023-01-18T11:19:00.780Z,2.35
2023-01-18T11:21:30.642Z,2.30
2023-01-18T11:23:58.465Z,2.47
2023-01-18T11:26:28.267Z,2.40
2023-01-18T11:29:07.355Z,1.98
2023-01-18T11:31:45.757Z,2.22
2023-01-18T11:34:25.335Z,2.53
2023-01-18T11:36:52.971Z,2.67
2023-01-18T11:39:20.639Z,3.70
2023-01-18T11:41:48.854Z,5.32
2023-01-18T11:44:22.623Z,6.00
2023-01-18T11:47:03.846Z,3.67
2023-01-18T11:49:37.855Z,4.88
2023-01-18T11:52:12.996Z,4.93
2023-01-18T11:54:44.186Z,3.72
2023-01-18T11:57:12.880Z,4.00
2023-01-18T11:59:42.881Z,3.05
2023-01-18T12:02:30.891Z,1.90
2023-01-18T12:04:58.463Z,2.50
2023-01-18T12:07:40.956Z,2.55
2023-01-18T12:10:13.966Z,2.90
2023-01-18T12:12:47.043Z,2.33
2023-01-18T12:15:33.299Z,2.05
2023-01-18T12:18:12.525Z,2.50
2023-01-18T12:20:43.710Z,1.85
2023-01-18T12:23:30.073Z,2.25
2023-01-18T12:26:11.766Z,2.30
2023-01-18T12:28:51.892Z,2.22
2023-01-18T12:31:25.385Z,1.60
2023-01-18T12:33:55.960Z,2.38
2023-01-18T12:36:42.161Z,2.13
2023-01-18T12:39:25.527Z,2.80
2023-01-18T12:41:52.939Z,2.28
2023-01-18T12:44:39.127Z,1.88
2023-01-18T12:47:06.521Z,2.40
2023-01-18T12:49:37.668Z,1.90
2023-01-18T12:52:18.107Z,2.45
2023-01-18T12:54:51.183Z,2.55
2023-01-18T12:57:19.332Z,2.00
2023-01-18T13:00:09.210Z,2.20
2023-01-18T13:02:41.808Z,1.80
2023-01-18T13:05:21.722Z,2.10
2023-01-18T13:08:00.483Z,2.20
2023-01-18T13:10:29.072Z,2.15
2023-01-18T13:12:57.894Z,2.50
2023-01-18T13:15:31.587Z,2.15
2023-01-18T13:18:06.511Z,2.00
2023-01-18T13:23:19.816Z,2.40
2023-01-18T13:25:48.546Z,2.15
2023-01-18T13:28:19.994Z,3.63
2023-01-18T13:30:53.314Z,4.10
2023-01-18T13:33:24.994Z,3.03
2023-01-18T13:36:13.662Z,2.85
2023-01-18T13:38:51.965Z,3.28
2023-01-18T13:41:24.851Z,2.95
2023-01-18T13:43:53.718Z,3.25
2023-01-18T13:46:23.274Z,3.50
2023-01-18T13:48:51.032Z,3.42
2023-01-18T13:51:37.202Z,3.33
2023-01-18T13:54:04.987Z,4.57
2023-01-18T13:56:33.412Z,7.45
2023-01-18T13:59:03.566Z,7.93
2023-01-18T14:01:34.070Z,6.82
2023-01-18T14:04:22.261Z,7.65
2023-01-18T14:06:50.917Z,8.93
2023-01-18T14:09:19.835Z,8.07
2023-01-18T14:11:55.036Z,7.07
2023-01-18T14:14:24.923Z,8.30
2023-01-18T14:16:57.568Z,9.15
2023-01-18T14:19:27.395Z,8.80
2023-01-18T14:22:00.604Z,9.52
2023-01-18T14:24:37.204Z,6.07
2023-01-18T14:27:06.469Z,3.40
2023-01-18T14:29:34.786Z,3.20
2023-01-18T14:32:02.493Z,3.58
2023-01-18T14:34:32.670Z,4.82
2023-01-18T14:37:00.268Z,4.90
2023-01-18T14:39:30.199Z,4.82
2023-01-18T14:41:58.861Z,4.60
2023-01-18T14:44:28.341Z,4.65
2023-01-18T14:46:57.354Z,4.25
2023-01-18T14:49:26.625Z,4.00
2023-01-18T14:51:54.697Z,4.45
2023-01-18T14:54:24.726Z,5.40
2023-01-18T14:56:52.536Z,6.30
2023-01-18T14:59:22.840Z,6.85
2023-01-18T15:01:53.423Z,20.30
2023-01-18T15:04:20.930Z,13.48
2023-01-18T15:06:55.646Z,23.08
2023-01-18T15:09:25.947Z,19.73
2023-01-18T15:11:57.301Z,21.10
2023-01-18T15:14:26.564Z,23.90
2023-01-18T15:16:55.685Z,35.00
2023-01-18T15:19:42.932Z,28.50
2023-01-18T15:22:12.942Z,25.20
2023-01-18T15:24:41.526Z,21.70
2023-01-18T15:27:19.587Z,22.45
2023-01-18T15:29:48.517Z,16.80
2023-01-18T15:32:17.993Z,14.93
2023-01-18T15:34:46.506Z,14.38
2023-01-18T15:37:16.727Z,7.20
2023-01-18T15:39:58.486Z,6.40
2023-01-18T15:42:28.840Z,5.97
2023-01-18T15:44:56.778Z,3.13
2023-01-18T15:47:25.693Z,2.55
2023-01-18T15:49:55.303Z,2.38
2023-01-18T15:52:43.748Z,2.42
2023-01-18T15:55:20.748Z,2.10
2023-01-18T15:58:02.406Z,2.38
2023-01-18T16:00:43.756Z,2.90
2023-01-18T16:03:33.439Z,2.97
2023-01-18T16:06:03.984Z,2.55
2023-01-18T16:08:31.533Z,2.80
2023-01-18T16:10:59.284Z,2.58
2023-01-18T16:13:27.380Z,3.97
2023-01-18T16:16:03.668Z,2.70
2023-01-18T16:18:31.105Z,2.40
2023-01-18T16:21:00.283Z,3.20
2023-01-18T16:23:27.997Z,3.03
2023-01-18T16:26:00.902Z,3.03
2023-01-18T16:28:28.477Z,3.28
2023-01-18T16:30:56.041Z,3.53
2023-01-18T16:33:23.901Z,3.70
2023-01-18T16:35:51.548Z,4.53
2023-01-18T16:38:23.824Z,7.10
2023-01-18T16:40:51.723Z,6.63
2023-01-18T16:43:19.078Z,9.05
2023-01-18T16:45:47.500Z,6.93
2023-01-18T16:48:16.761Z,7.45
2023-01-18T16:50:44.943Z,4.65
2023-01-18T16:53:12.607Z,3.83
2023-01-18T16:55:40.547Z,4.43
2023-01-18T16:58:08.099Z,5.55
2023-01-18T17:00:51.427Z,10.93
2023-01-18T17:03:19.287Z,11.48
2023-01-18T17:05:46.823Z,11.93
2023-01-18T17:08:15.423Z,10.13
2023-01-18T17:10:44.545Z,10.43
2023-01-18T17:13:12.070Z,11.30
2023-01-18T17:15:45.294Z,18.83
2023-01-18T17:18:17.406Z,32.67
2023-01-18T17:20:45.213Z,21.90
2023-01-18T17:23:12.717Z,17.17
2023-01-18T17:25:41.178Z,14.93
2023-01-18T17:28:08.716Z,11.50
2023-01-18T17:30:37.416Z,10.75
2023-01-18T17:33:04.861Z,10.68
2023-01-18T17:35:32.856Z,9.43
2023-01-18T17:38:06.499Z,9.43
2023-01-18T17:40:42.801Z,10.13
2023-01-18T17:43:15.189Z,9.30
2023-01-18T17:45:50.979Z,8.32
2023-01-18T17:48:28.503Z,9.13
2023-01-18T17:50:55.967Z,8.82
2023-01-18T17:53:23.454Z,7.95
2023-01-18T17:55:50.949Z,10.82
2023-01-18T17:58:18.357Z,11.25
2023-01-18T18:00:45.842Z,9.68
2023-01-18T18:03:13.557Z,7.63
2023-01-18T18:05:41.104Z,7.57
2023-01-18T18:08:09.601Z,8.05
2023-01-18T18:10:37.063Z,7.55
2023-01-18T18:13:04.623Z,7.72
2023-01-18T18:15:32.181Z,9.98
2023-01-18T18:17:59.718Z,28.77
2023-01-18T18:20:27.183Z,10.98
2023-01-18T18:22:54.615Z,9.88
2023-01-18T18:25:22.125Z,9.40
2023-01-18T18:27:49.562Z,7.20
2023-01-18T18:30:17.744Z,14.57
2023-01-18T18:32:45.492Z,9.20
2023-01-18T18:35:25.367Z,16.08
2023-01-18T18:37:54.352Z,16.17
2023-01-18T18:40:22.543Z,18.02
2023-01-18T18:43:00.608Z,15.20
2023-01-18T18:45:30.888Z,14.88
2023-01-18T18:47:58.241Z,16.17
2023-01-18T18:50:26.064Z,14.85
2023-01-18T18:52:53.815Z,20.83
2023-01-18T18:55:21.326Z,20.52
2023-01-18T18:57:48.782Z,25.85
2023-01-18T19:00:16.782Z,22.40
2023-01-18T19:02:44.269Z,20.30
2023-01-18T19:05:12.115Z,12.18
2023-01-18T19:07:40.092Z,10.45
2023-01-18T19:10:07.959Z,9.40
2023-01-18T19:12:35.541Z,8.43
2023-01-18T19:15:03.115Z,6.90
2023-01-18T19:17:31.692Z,6.40
2023-01-18T19:19:59.538Z,5.82
2023-01-18T19:22:27.004Z,6.15
2023-01-18T19:24:54.483Z,6.32
2023-01-18T19:27:24.639Z,6.75
2023-01-18T19:29:53.436Z,6.85
2023-01-18T19:32:21.242Z,12.05
2023-01-18T19:34:48.668Z,8.30
2023-01-18T19:37:16.135Z,8.57
2023-01-18T19:39:43.594Z,9.00
2023-01-18T19:42:11.191Z,10.60
2023-01-18T19:44:38.656Z,13.60
2023-01-18T19:47:06.093Z,14.82
2023-01-18T19:49:33.719Z,12.65
2023-01-18T19:52:01.066Z,9.93
2023-01-18T19:54:28.491Z,9.75
2023-01-18T19:56:55.984Z,10.18
2023-01-18T19:59:23.476Z,9.73
2023-01-18T20:01:52.398Z,9.55
2023-01-18T20:04:20.125Z,13.38
2023-01-18T20:06:47.949Z,11.85
2023-01-18T20:09:20.174Z,10.82
2023-01-18T20:11:49.330Z,9.13
2023-01-18T20:14:18.280Z,7.55
2023-01-18T20:16:46.303Z,7.88
2023-01-18T20:19:14.577Z,7.85
2023-01-18T20:21:42.109Z,9.27
2023-01-18T20:24:09.829Z,12.75
2023-01-18T20:26:39.583Z,15.73
2023-01-18T20:29:08.277Z,16.50
2023-01-18T20:31:36.653Z,16.77
2023-01-18T20:34:05.165Z,16.00
2023-01-18T20:36:34.977Z,17.70
2023-01-18T20:39:02.753Z,14.07
2023-01-18T20:41:30.249Z,12.52
2023-01-18T20:43:57.789Z,11.35
2023-01-18T20:46:25.214Z,12.43
2023-01-18T20:48:52.983Z,10.48
2023-01-18T20:51:20.562Z,9.52
2023-01-18T20:53:48.057Z,10.88
2023-01-18T20:56:28.389Z,10.70
2023-01-18T20:58:57.162Z,10.90
2023-01-18T21:01:31.561Z,20.00
2023-01-18T21:04:00.454Z,16.13
2023-01-18T21:06:28.059Z,26.05
2023-01-18T21:08:56.505Z,29.60
2023-01-18T21:11:25.386Z,20.02
2023-01-18T21:13:56.297Z,16.92
2023-01-18T21:16:24.027Z,12.15
2023-01-18T21:18:53.953Z,9.65
2023-01-18T21:21:21.384Z,8.63
2023-01-18T21:23:48.796Z,8.35
2023-01-18T21:26:17.062Z,9.82
2023-01-18T21:28:44.543Z,7.60
2023-01-18T21:31:12.430Z,8.10
2023-01-18T21:33:39.839Z,7.72
2023-01-18T21:36:13.025Z,7.65
2023-01-18T21:38:40.512Z,7.30
2023-01-18T21:41:26.764Z,7.68
2023-01-18T21:44:32.688Z,8.25
2023-01-18T21:47:00.151Z,7.38
2023-01-18T21:52:52.271Z,7.40
2023-01-18T21:55:20.368Z,7.38
2023-01-18T21:58:07.716Z,7.63
2023-01-18T22:00:38.983Z,7.72
2023-01-18T22:03:06.806Z,7.13
2023-01-18T22:05:34.423Z,6.60
2023-01-18T22:08:02.277Z,7.43
2023-01-18T22:10:29.825Z,7.32
2023-01-18T22:12:57.205Z,7.28
2023-01-18T22:15:24.683Z,6.68
2023-01-18T22:17:52.037Z,6.70
2023-01-18T22:20:19.573Z,6.93
2023-01-18T22:22:47.187Z,8.35
2023-01-18T22:25:14.617Z,7.28
2023-01-18T22:27:41.950Z,6.18
2023-01-18T22:30:09.793Z,7.13
2023-01-18T22:32:37.188Z,6.53
2023-01-18T22:35:04.631Z,7.78
2023-01-18T22:37:32.021Z,6.88
2023-01-18T22:39:59.410Z,7.38
2023-01-18T22:42:27.495Z,6.65
2023-01-18T22:44:54.903Z,8.27
2023-01-18T22:47:22.238Z,6.55
2023-01-18T22:49:49.668Z,6.90
2023-01-18T22:52:17.136Z,7.70
2023-01-18T22:54:44.527Z,7.53
2023-01-18T22:57:11.950Z,6.63
2023-01-18T22:59:39.468Z,7.82
2023-01-18T23:02:06.825Z,6.55
2023-01-18T23:04:34.416Z,6.55
2023-01-18T23:07:01.991Z,7.55
2023-01-18T23:09:29.552Z,7.03
2023-01-18T23:11:57.061Z,7.80
2023-01-18T23:14:43.068Z,7.22
2023-01-18T23:17:30.124Z,8.65
2023-01-18T23:19:57.619Z,7.30
2023-01-18T23:22:25.013Z,7.10
2023-01-18T23:24:52.439Z,8.32
2023-01-18T23:27:19.847Z,8.13
2023-01-18T23:29:51.462Z,7.45
2023-01-18T23:32:18.938Z,6.53
2023-01-18T23:34:47.812Z,8.50
2023-01-18T23:37:15.244Z,8.13
2023-01-18T23:40:01.170Z,8.10
2023-01-18T23:42:47.128Z,6.68
2023-01-18T23:45:32.971Z,6.15
2023-01-18T23:48:25.307Z,6.40
2023-01-18T23:51:11.263Z,6.32
2023-01-18T23:53:57.283Z,6.57
2023-01-18T23:56:24.722Z,6.75
2023-01-18T23:58:52.180Z,5.55
